sensor_id;sensor_type;location;lat;lon;timestamp;temperature;humidity
53776;DHT22;44276;49.534;6.378;2023-06-19T00:02:25;17.60;99.90
53776;DHT22;44276;49.534;6.378;2023-06-19T00:04:54;17.60;99.90
53776;DHT22;44276;49.534;6.378;2023-06-19T00:07:22;17.50;99.90
53776;DHT22;44276;49.534;6.378;2023-06-19T00:09:50;17.50;99.90
53776;DHT22;44276;49.534;6.378;2023-06-19T00:12:18;17.50;99.90
53776;DHT22;44276;49.534;6.378;2023-06-19T00:14:47;17.50;99.90
53776;DHT22;44276;49.534;6.378;2023-06-19T00:17:15;17.50;99.90
53776;DHT22;44276;49.534;6.378;2023-06-19T00:19:44;17.50;99.90
53776;DHT22;44276;49.534;6.378;2023-06-19T00:22:13;17.50;99.90
53776;DHT22;44276;49.534;6.378;2023-06-19T00:24:41;17.50;99.90
53776;DHT22;44276;49.534;6.378;2023-06-19T00:27:09;17.50;99.90
53776;DHT22;44276;49.534;6.378;2023-06-19T00:29:37;17.50;99.90
53776;DHT22;44276;49.534;6.378;2023-06-19T00:32:07;17.40;99.90
53776;DHT22;44276;49.534;6.378;2023-06-19T00:34:36;17.50;99.90
53776;DHT22;44276;49.534;6.378;2023-06-19T00:37:05;17.50;99.90
53776;DHT22;44276;49.534;6.378;2023-06-19T00:39:33;17.40;99.90
53776;DHT22;44276;49.534;6.378;2023-06-19T00:42:01;17.40;99.90
53776;DHT22;44276;49.534;6.378;2023-06-19T00:44:29;17.30;99.90
53776;DHT22;44276;49.534;6.378;2023-06-19T00:47:00;17.30;99.90
53776;DHT22;44276;49.534;6.378;2023-06-19T00:49:31;17.30;99.90
53776;DHT22;44276;49.534;6.378;2023-06-19T00:52:00;17.20;99.90
53776;DHT22;44276;49.534;6.378;2023-06-19T00:54:30;17.20;99.90
53776;DHT22;44276;49.534;6.378;2023-06-19T00:56:59;17.20;99.90
53776;DHT22;44276;49.534;6.378;2023-06-19T00:59:28;17.10;99.90
53776;DHT22;44276;49.534;6.378;2023-06-19T01:01:56;17.10;99.90
53776;DHT22;44276;49.534;6.378;2023-06-19T01:04:25;17.10;99.90
53776;DHT22;44276;49.534;6.378;2023-06-19T01:06:57;17.10;99.90
53776;DHT22;44276;49.534;6.378;2023-06-19T01:09:40;17.00;99.90
53776;DHT22;44276;49.534;6.378;2023-06-19T01:12:16;16.90;99.90
53776;DHT22;44276;49.534;6.378;2023-06-19T01:14:52;16.90;99.90
53776;DHT22;44276;49.534;6.378;2023-06-19T01:17:23;16.80;99.90
53776;DHT22;44276;49.534;6.378;2023-06-19T01:19:53;16.70;99.90
53776;DHT22;44276;49.534;6.378;2023-06-19T01:22:25;16.70;99.90
53776;DHT22;44276;49.534;6.378;2023-06-19T01:24:54;16.60;99.90
53776;DHT22;44276;49.534;6.378;2023-06-19T01:27:23;16.70;99.90
53776;DHT22;44276;49.534;6.378;2023-06-19T01:29:56;16.70;99.90
53776;DHT22;44276;49.534;6.378;2023-06-19T01:32:31;16.60;99.90
53776;DHT22;44276;49.534;6.378;2023-06-19T01:35:04;16.70;99.90
53776;DHT22;44276;49.534;6.378;2023-06-19T01:37:37;16.80;99.90
53776;DHT22;44276;49.534;6.378;2023-06-19T01:40:10;17.00;99.90
53776;DHT22;44276;49.534;6.378;2023-06-19T01:42:40;17.00;99.90
53776;DHT22;44276;49.534;6.378;2023-06-19T01:45:09;17.10;99.90
53776;DHT22;44276;49.534;6.378;2023-06-19T01:47:38;17.10;99.90
53776;DHT22;44276;49.534;6.378;2023-06-19T01:50:08;17.10;99.90
53776;DHT22;44276;49.534;6.378;2023-06-19T01:52:39;17.20;99.90
53776;DHT22;44276;49.534;6.378;2023-06-19T01:55:08;17.30;99.90
53776;DHT22;44276;49.534;6.378;2023-06-19T01:57:37;17.30;99.90
53776;DHT22;44276;49.534;6.378;2023-06-19T02:00:06;17.30;99.90
53776;DHT22;44276;49.534;6.378;2023-06-19T02:02:36;17.30;99.90
53776;DHT22;44276;49.534;6.378;2023-06-19T02:05:05;17.30;99.90
53776;DHT22;44276;49.534;6.378;2023-06-19T02:07:34;17.20;99.90
53776;DHT22;44276;49.534;6.378;2023-06-19T02:10:04;17.30;99.90
53776;DHT22;44276;49.534;6.378;2023-06-19T02:12:33;17.20;99.90
53776;DHT22;44276;49.534;6.378;2023-06-19T02:15:01;17.30;99.90
53776;DHT22;44276;49.534;6.378;2023-06-19T02:17:29;17.30;99.90
53776;DHT22;44276;49.534;6.378;2023-06-19T02:19:57;17.40;99.90
53776;DHT22;44276;49.534;6.378;2023-06-19T02:22:25;17.40;99.90
53776;DHT22;44276;49.534;6.378;2023-06-19T02:24:54;17.40;99.90
53776;DHT22;44276;49.534;6.378;2023-06-19T02:27:23;17.50;99.90
53776;DHT22;44276;49.534;6.378;2023-06-19T02:29:51;17.50;99.90
53776;DHT22;44276;49.534;6.378;2023-06-19T02:32:19;17.40;99.90
53776;DHT22;44276;49.534;6.378;2023-06-19T02:34:47;17.40;99.90
53776;DHT22;44276;49.534;6.378;2023-06-19T02:37:16;17.40;99.90
53776;DHT22;44276;49.534;6.378;2023-06-19T02:39:44;17.30;99.90
53776;DHT22;44276;49.534;6.378;2023-06-19T02:42:12;17.30;99.90
53776;DHT22;44276;49.534;6.378;2023-06-19T02:44:42;17.20;99.90
53776;DHT22;44276;49.534;6.378;2023-06-19T02:47:10;17.10;99.90
53776;DHT22;44276;49.534;6.378;2023-06-19T02:49:38;17.00;99.90
53776;DHT22;44276;49.534;6.378;2023-06-19T02:52:07;17.10;99.90
53776;DHT22;44276;49.534;6.378;2023-06-19T02:54:36;17.10;99.90
53776;DHT22;44276;49.534;6.378;2023-06-19T02:57:05;17.10;99.90
53776;DHT22;44276;49.534;6.378;2023-06-19T02:59:35;17.10;99.90
53776;DHT22;44276;49.534;6.378;2023-06-19T03:02:05;17.10;99.90
53776;DHT22;44276;49.534;6.378;2023-06-19T03:04:33;17.10;99.90
53776;DHT22;44276;49.534;6.378;2023-06-19T03:07:01;17.10;99.90
53776;DHT22;44276;49.534;6.378;2023-06-19T03:09:29;17.10;99.90
53776;DHT22;44276;49.534;6.378;2023-06-19T03:11:57;17.10;99.90
53776;DHT22;44276;49.534;6.378;2023-06-19T03:14:25;17.00;99.90
53776;DHT22;44276;49.534;6.378;2023-06-19T03:16:54;17.00;99.90
53776;DHT22;44276;49.534;6.378;2023-06-19T03:19:23;17.10;99.90
53776;DHT22;44276;49.534;6.378;2023-06-19T03:21:51;17.00;99.90
53776;DHT22;44276;49.534;6.378;2023-06-19T03:24:20;17.00;99.90
53776;DHT22;44276;49.534;6.378;2023-06-19T03:26:48;17.00;99.90
53776;DHT22;44276;49.534;6.378;2023-06-19T03:29:16;17.10;99.90
53776;DHT22;44276;49.534;6.378;2023-06-19T03:31:44;17.00;99.90
53776;DHT22;44276;49.534;6.378;2023-06-19T03:34:12;17.10;99.90
53776;DHT22;44276;49.534;6.378;2023-06-19T03:36:42;17.00;99.90
53776;DHT22;44276;49.534;6.378;2023-06-19T03:39:10;17.00;99.90
53776;DHT22;44276;49.534;6.378;2023-06-19T03:41:38;16.90;99.90
53776;DHT22;44276;49.534;6.378;2023-06-19T03:44:06;16.80;99.90
53776;DHT22;44276;49.534;6.378;2023-06-19T03:46:34;16.80;99.90
53776;DHT22;44276;49.534;6.378;2023-06-19T03:49:02;16.80;99.90
53776;DHT22;44276;49.534;6.378;2023-06-19T03:51:32;16.80;99.90
53776;DHT22;44276;49.534;6.378;2023-06-19T03:54:01;16.80;99.90
53776;DHT22;44276;49.534;6.378;2023-06-19T03:56:29;16.90;99.90
53776;DHT22;44276;49.534;6.378;2023-06-19T03:58:57;17.00;99.90
53776;DHT22;44276;49.534;6.378;2023-06-19T04:01:26;17.10;99.90
53776;DHT22;44276;49.534;6.378;2023-06-19T04:03:54;17.30;99.90
53776;DHT22;44276;49.534;6.378;2023-06-19T04:06:22;17.40;99.90
53776;DHT22;44276;49.534;6.378;2023-06-19T04:08:51;17.50;99.90
53776;DHT22;44276;49.534;6.378;2023-06-19T04:11:21;17.60;99.90
53776;DHT22;44276;49.534;6.378;2023-06-19T04:13:49;17.70;99.90
53776;DHT22;44276;49.534;6.378;2023-06-19T04:16:17;17.70;99.90
53776;DHT22;44276;49.534;6.378;2023-06-19T04:18:46;17.80;99.90
53776;DHT22;44276;49.534;6.378;2023-06-19T04:21:14;17.80;99.90
53776;DHT22;44276;49.534;6.378;2023-06-19T04:23:42;17.80;99.90
53776;DHT22;44276;49.534;6.378;2023-06-19T04:26:10;17.90;99.90
53776;DHT22;44276;49.534;6.378;2023-06-19T04:28:39;17.90;99.90
53776;DHT22;44276;49.534;6.378;2023-06-19T04:31:08;18.00;99.90
53776;DHT22;44276;49.534;6.378;2023-06-19T04:33:36;18.00;99.90
53776;DHT22;44276;49.534;6.378;2023-06-19T04:36:07;18.10;99.90
53776;DHT22;44276;49.534;6.378;2023-06-19T04:38:36;18.10;99.90
53776;DHT22;44276;49.534;6.378;2023-06-19T04:41:04;18.20;99.90
53776;DHT22;44276;49.534;6.378;2023-06-19T04:43:33;18.30;99.90
53776;DHT22;44276;49.534;6.378;2023-06-19T04:46:02;18.30;99.90
53776;DHT22;44276;49.534;6.378;2023-06-19T04:48:31;18.40;99.90
53776;DHT22;44276;49.534;6.378;2023-06-19T04:51:02;18.50;99.90
53776;DHT22;44276;49.534;6.378;2023-06-19T04:53:30;18.60;99.90
53776;DHT22;44276;49.534;6.378;2023-06-19T04:55:58;18.60;99.90
53776;DHT22;44276;49.534;6.378;2023-06-19T04:58:28;18.70;99.90
53776;DHT22;44276;49.534;6.378;2023-06-19T05:00:56;18.80;99.90
53776;DHT22;44276;49.534;6.378;2023-06-19T05:03:26;19.00;99.90
53776;DHT22;44276;49.534;6.378;2023-06-19T05:05:54;19.10;99.90
53776;DHT22;44276;49.534;6.378;2023-06-19T05:08:22;19.30;99.90
53776;DHT22;44276;49.534;6.378;2023-06-19T05:10:50;19.50;99.90
53776;DHT22;44276;49.534;6.378;2023-06-19T05:13:18;19.60;99.90
53776;DHT22;44276;49.534;6.378;2023-06-19T05:15:46;19.90;99.90
53776;DHT22;44276;49.534;6.378;2023-06-19T05:18:15;20.30;99.90
53776;DHT22;44276;49.534;6.378;2023-06-19T05:20:45;20.60;99.90
53776;DHT22;44276;49.534;6.378;2023-06-19T05:23:13;20.70;99.90
53776;DHT22;44276;49.534;6.378;2023-06-19T05:25:41;20.80;99.90
53776;DHT22;44276;49.534;6.378;2023-06-19T05:28:10;21.00;99.90
53776;DHT22;44276;49.534;6.378;2023-06-19T05:30:38;21.20;99.90
53776;DHT22;44276;49.534;6.378;2023-06-19T05:33:06;21.70;99.90
53776;DHT22;44276;49.534;6.378;2023-06-19T05:35:36;21.90;99.90
53776;DHT22;44276;49.534;6.378;2023-06-19T05:38:05;21.80;99.90
53776;DHT22;44276;49.534;6.378;2023-06-19T05:40:33;21.70;99.90
53776;DHT22;44276;49.534;6.378;2023-06-19T05:43:01;21.80;99.90
53776;DHT22;44276;49.534;6.378;2023-06-19T05:45:30;22.00;99.90
53776;DHT22;44276;49.534;6.378;2023-06-19T05:47:58;22.30;99.90
53776;DHT22;44276;49.534;6.378;2023-06-19T05:50:26;22.50;99.90
53776;DHT22;44276;49.534;6.378;2023-06-19T05:52:54;22.60;99.90
53776;DHT22;44276;49.534;6.378;2023-06-19T05:55:24;22.40;99.90
53776;DHT22;44276;49.534;6.378;2023-06-19T05:57:55;22.00;99.90
53776;DHT22;44276;49.534;6.378;2023-06-19T06:00:23;21.50;99.90
53776;DHT22;44276;49.534;6.378;2023-06-19T06:02:52;21.20;99.90
53776;DHT22;44276;49.534;6.378;2023-06-19T06:05:20;21.20;99.90
53776;DHT22;44276;49.534;6.378;2023-06-19T06:07:49;21.20;99.90
53776;DHT22;44276;49.534;6.378;2023-06-19T06:10:17;21.20;99.90
53776;DHT22;44276;49.534;6.378;2023-06-19T06:12:48;21.10;99.90
53776;DHT22;44276;49.534;6.378;2023-06-19T06:15:17;21.10;99.90
53776;DHT22;44276;49.534;6.378;2023-06-19T06:17:45;21.10;99.90
53776;DHT22;44276;49.534;6.378;2023-06-19T06:20:13;21.20;99.90
53776;DHT22;44276;49.534;6.378;2023-06-19T06:22:42;21.50;99.90
53776;DHT22;44276;49.534;6.378;2023-06-19T06:25:10;21.70;99.90
53776;DHT22;44276;49.534;6.378;2023-06-19T06:27:41;21.80;99.90
53776;DHT22;44276;49.534;6.378;2023-06-19T06:30:12;22.10;99.90
53776;DHT22;44276;49.534;6.378;2023-06-19T06:32:42;22.50;99.90
53776;DHT22;44276;49.534;6.378;2023-06-19T06:35:10;23.00;99.90
53776;DHT22;44276;49.534;6.378;2023-06-19T06:37:39;23.40;99.90
53776;DHT22;44276;49.534;6.378;2023-06-19T06:40:08;23.40;99.90
53776;DHT22;44276;49.534;6.378;2023-06-19T06:42:38;23.50;99.90
53776;DHT22;44276;49.534;6.378;2023-06-19T06:45:07;23.60;99.90
53776;DHT22;44276;49.534;6.378;2023-06-19T06:47:37;23.90;96.70
53776;DHT22;44276;49.534;6.378;2023-06-19T06:50:07;24.70;83.30
53776;DHT22;44276;49.534;6.378;2023-06-19T06:52:37;25.20;75.50
53776;DHT22;44276;49.534;6.378;2023-06-19T06:55:06;25.20;72.60
53776;DHT22;44276;49.534;6.378;2023-06-19T06:57:35;25.30;62.50
53776;DHT22;44276;49.534;6.378;2023-06-19T07:00:04;25.40;64.30
53776;DHT22;44276;49.534;6.378;2023-06-19T07:02:38;25.40;65.00
53776;DHT22;44276;49.534;6.378;2023-06-19T07:05:09;24.70;72.90
53776;DHT22;44276;49.534;6.378;2023-06-19T07:07:38;24.20;88.20
53776;DHT22;44276;49.534;6.378;2023-06-19T07:10:07;23.60;96.20
53776;DHT22;44276;49.534;6.378;2023-06-19T07:12:44;23.50;95.80
53776;DHT22;44276;49.534;6.378;2023-06-19T07:15:13;23.60;92.70
53776;DHT22;44276;49.534;6.378;2023-06-19T07:17:43;23.90;73.20
53776;DHT22;44276;49.534;6.378;2023-06-19T07:20:12;24.40;63.30
53776;DHT22;44276;49.534;6.378;2023-06-19T07:22:40;25.70;50.90
53776;DHT22;44276;49.534;6.378;2023-06-19T07:25:10;27.10;41.20
53776;DHT22;44276;49.534;6.378;2023-06-19T07:27:40;28.60;34.20
53776;DHT22;44276;49.534;6.378;2023-06-19T07:30:09;29.00;30.10
53776;DHT22;44276;49.534;6.378;2023-06-19T07:32:43;28.60;29.30
53776;DHT22;44276;49.534;6.378;2023-06-19T07:35:11;29.20;28.70
53776;DHT22;44276;49.534;6.378;2023-06-19T07:37:40;29.60;27.10
53776;DHT22;44276;49.534;6.378;2023-06-19T07:40:09;28.60;28.70
53776;DHT22;44276;49.534;6.378;2023-06-19T07:42:38;28.30;28.90
53776;DHT22;44276;49.534;6.378;2023-06-19T07:45:11;27.70;30.90
53776;DHT22;44276;49.534;6.378;2023-06-19T07:47:40;26.80;34.80
53776;DHT22;44276;49.534;6.378;2023-06-19T07:50:10;26.10;38.30
53776;DHT22;44276;49.534;6.378;2023-06-19T07:52:38;25.80;41.10
53776;DHT22;44276;49.534;6.378;2023-06-19T07:55:06;26.00;40.10
53776;DHT22;44276;49.534;6.378;2023-06-19T07:57:35;25.80;42.50
53776;DHT22;44276;49.534;6.378;2023-06-19T08:00:05;26.20;42.50
53776;DHT22;44276;49.534;6.378;2023-06-19T08:02:38;27.20;34.90
53776;DHT22;44276;49.534;6.378;2023-06-19T08:05:10;27.60;31.90
53776;DHT22;44276;49.534;6.378;2023-06-19T08:07:38;27.70;31.60
53776;DHT22;44276;49.534;6.378;2023-06-19T08:10:07;27.90;33.00
53776;DHT22;44276;49.534;6.378;2023-06-19T08:12:53;27.30;32.20
53776;DHT22;44276;49.534;6.378;2023-06-19T08:15:21;26.70;34.70
53776;DHT22;44276;49.534;6.378;2023-06-19T08:17:49;26.30;38.50
53776;DHT22;44276;49.534;6.378;2023-06-19T08:20:19;26.10;38.00
53776;DHT22;44276;49.534;6.378;2023-06-19T08:22:49;26.30;39.00
53776;DHT22;44276;49.534;6.378;2023-06-19T08:25:17;26.90;34.10
53776;DHT22;44276;49.534;6.378;2023-06-19T08:27:45;27.70;33.40
53776;DHT22;44276;49.534;6.378;2023-06-19T08:30:13;28.20;30.80
53776;DHT22;44276;49.534;6.378;2023-06-19T08:32:42;28.10;28.80
53776;DHT22;44276;49.534;6.378;2023-06-19T08:35:11;28.10;29.70
53776;DHT22;44276;49.534;6.378;2023-06-19T08:37:40;27.90;30.60
53776;DHT22;44276;49.534;6.378;2023-06-19T08:40:10;27.40;31.40
53776;DHT22;44276;49.534;6.378;2023-06-19T08:42:39;26.70;35.10
53776;DHT22;44276;49.534;6.378;2023-06-19T08:45:11;26.10;34.90
53776;DHT22;44276;49.534;6.378;2023-06-19T08:47:39;26.10;36.90
53776;DHT22;44276;49.534;6.378;2023-06-19T08:50:08;26.30;35.70
53776;DHT22;44276;49.534;6.378;2023-06-19T08:52:36;26.30;35.60
53776;DHT22;44276;49.534;6.378;2023-06-19T08:55:07;26.50;36.50
53776;DHT22;44276;49.534;6.378;2023-06-19T08:57:38;26.80;32.90
53776;DHT22;44276;49.534;6.378;2023-06-19T09:00:07;27.00;35.00
53776;DHT22;44276;49.534;6.378;2023-06-19T09:02:41;27.10;31.70
53776;DHT22;44276;49.534;6.378;2023-06-19T09:05:19;27.70;34.30
53776;DHT22;44276;49.534;6.378;2023-06-19T09:07:55;28.30;30.00
53776;DHT22;44276;49.534;6.378;2023-06-19T09:10:26;28.10;28.40
53776;DHT22;44276;49.534;6.378;2023-06-19T09:12:58;27.80;30.30
53776;DHT22;44276;49.534;6.378;2023-06-19T09:15:29;28.00;29.00
53776;DHT22;44276;49.534;6.378;2023-06-19T09:18:03;28.20;28.70
53776;DHT22;44276;49.534;6.378;2023-06-19T09:20:33;28.60;28.60
53776;DHT22;44276;49.534;6.378;2023-06-19T09:23:02;29.50;27.30
53776;DHT22;44276;49.534;6.378;2023-06-19T09:25:32;29.60;26.80
53776;DHT22;44276;49.534;6.378;2023-06-19T09:28:17;30.20;25.20
53776;DHT22;44276;49.534;6.378;2023-06-19T09:30:57;31.80;23.10
53776;DHT22;44276;49.534;6.378;2023-06-19T09:33:27;32.70;20.50
53776;DHT22;44276;49.534;6.378;2023-06-19T09:35:58;32.50;21.10
53776;DHT22;44276;49.534;6.378;2023-06-19T09:38:28;31.40;23.00
53776;DHT22;44276;49.534;6.378;2023-06-19T09:41:01;31.00;22.20
53776;DHT22;44276;49.534;6.378;2023-06-19T09:43:34;31.70;22.10
53776;DHT22;44276;49.534;6.378;2023-06-19T09:46:06;32.80;20.20
53776;DHT22;44276;49.534;6.378;2023-06-19T09:48:35;33.10;19.20
53776;DHT22;44276;49.534;6.378;2023-06-19T09:51:12;32.80;18.70
53776;DHT22;44276;49.534;6.378;2023-06-19T09:53:46;33.50;18.20
53776;DHT22;44276;49.534;6.378;2023-06-19T09:56:17;33.70;18.30
53776;DHT22;44276;49.534;6.378;2023-06-19T09:58:50;33.90;17.70
53776;DHT22;44276;49.534;6.378;2023-06-19T10:01:20;33.70;18.00
53776;DHT22;44276;49.534;6.378;2023-06-19T10:03:49;33.60;17.30
53776;DHT22;44276;49.534;6.378;2023-06-19T10:06:17;33.70;17.70
53776;DHT22;44276;49.534;6.378;2023-06-19T10:08:46;33.70;17.70
53776;DHT22;44276;49.534;6.378;2023-06-19T10:11:15;33.10;17.30
53776;DHT22;44276;49.534;6.378;2023-06-19T10:13:45;33.50;18.30
53776;DHT22;44276;49.534;6.378;2023-06-19T10:16:20;33.90;17.70
53776;DHT22;44276;49.534;6.378;2023-06-19T10:18:50;34.10;17.30
53776;DHT22;44276;49.534;6.378;2023-06-19T10:21:19;34.40;16.80
53776;DHT22;44276;49.534;6.378;2023-06-19T10:23:54;34.60;16.90
53776;DHT22;44276;49.534;6.378;2023-06-19T10:26:33;34.50;16.40
53776;DHT22;44276;49.534;6.378;2023-06-19T10:29:13;34.20;16.50
53776;DHT22;44276;49.534;6.378;2023-06-19T10:31:42;34.60;16.40
53776;DHT22;44276;49.534;6.378;2023-06-19T10:34:12;34.50;16.50
53776;DHT22;44276;49.534;6.378;2023-06-19T10:36:40;34.00;15.60
53776;DHT22;44276;49.534;6.378;2023-06-19T10:39:08;33.60;16.40
53776;DHT22;44276;49.534;6.378;2023-06-19T10:41:40;34.00;16.80
53776;DHT22;44276;49.534;6.378;2023-06-19T10:44:08;33.00;16.70
53776;DHT22;44276;49.534;6.378;2023-06-19T10:46:39;33.50;16.60
53776;DHT22;44276;49.534;6.378;2023-06-19T10:49:08;34.50;14.40
53776;DHT22;44276;49.534;6.378;2023-06-19T10:51:41;35.80;13.10
53776;DHT22;44276;49.534;6.378;2023-06-19T10:54:10;36.50;13.70
53776;DHT22;44276;49.534;6.378;2023-06-19T10:56:39;35.40;13.60
53776;DHT22;44276;49.534;6.378;2023-06-19T10:59:10;33.70;15.50
53776;DHT22;44276;49.534;6.378;2023-06-19T11:01:42;32.70;16.50
53776;DHT22;44276;49.534;6.378;2023-06-19T11:04:14;32.70;16.70
53776;DHT22;44276;49.534;6.378;2023-06-19T11:06:44;33.10;16.20
53776;DHT22;44276;49.534;6.378;2023-06-19T11:09:14;33.90;15.00
53776;DHT22;44276;49.534;6.378;2023-06-19T11:11:45;33.10;15.80
53776;DHT22;44276;49.534;6.378;2023-06-19T11:14:16;32.70;16.00
53776;DHT22;44276;49.534;6.378;2023-06-19T11:16:45;33.70;16.60
53776;DHT22;44276;49.534;6.378;2023-06-19T11:19:17;34.20;13.90
53776;DHT22;44276;49.534;6.378;2023-06-19T11:21:47;34.80;13.60
53776;DHT22;44276;49.534;6.378;2023-06-19T11:24:17;34.10;13.80
53776;DHT22;44276;49.534;6.378;2023-06-19T11:26:50;33.70;14.20
53776;DHT22;44276;49.534;6.378;2023-06-19T11:29:20;33.40;14.80
53776;DHT22;44276;49.534;6.378;2023-06-19T11:31:50;33.20;15.20
53776;DHT22;44276;49.534;6.378;2023-06-19T11:34:31;33.30;15.40
53776;DHT22;44276;49.534;6.378;2023-06-19T11:37:00;33.50;15.60
53776;DHT22;44276;49.534;6.378;2023-06-19T11:39:28;33.50;15.20
53776;DHT22;44276;49.534;6.378;2023-06-19T11:41:59;33.90;14.90
53776;DHT22;44276;49.534;6.378;2023-06-19T11:44:27;33.90;14.40
53776;DHT22;44276;49.534;6.378;2023-06-19T11:46:57;32.30;15.30
53776;DHT22;44276;49.534;6.378;2023-06-19T11:49:26;32.00;16.50
53776;DHT22;44276;49.534;6.378;2023-06-19T11:51:54;32.40;16.60
53776;DHT22;44276;49.534;6.378;2023-06-19T11:54:23;32.50;15.30
53776;DHT22;44276;49.534;6.378;2023-06-19T11:56:51;32.40;15.60
53776;DHT22;44276;49.534;6.378;2023-06-19T11:59:20;32.70;15.30
53776;DHT22;44276;49.534;6.378;2023-06-19T12:01:48;32.10;15.70
53776;DHT22;44276;49.534;6.378;2023-06-19T12:04:16;31.80;16.90
53776;DHT22;44276;49.534;6.378;2023-06-19T12:06:45;31.80;16.60
53776;DHT22;44276;49.534;6.378;2023-06-19T12:09:13;31.60;17.40
53776;DHT22;44276;49.534;6.378;2023-06-19T12:11:41;30.80;18.00
53776;DHT22;44276;49.534;6.378;2023-06-19T12:14:09;30.20;18.80
53776;DHT22;44276;49.534;6.378;2023-06-19T12:16:39;30.30;19.30
53776;DHT22;44276;49.534;6.378;2023-06-19T12:19:07;30.30;19.70
53776;DHT22;44276;49.534;6.378;2023-06-19T12:21:35;29.70;20.30
53776;DHT22;44276;49.534;6.378;2023-06-19T12:24:08;29.90;19.60
53776;DHT22;44276;49.534;6.378;2023-06-19T12:26:36;30.20;19.70
53776;DHT22;44276;49.534;6.378;2023-06-19T12:29:05;29.90;19.00
53776;DHT22;44276;49.534;6.378;2023-06-19T12:31:34;29.80;19.60
53776;DHT22;44276;49.534;6.378;2023-06-19T12:34:05;29.70;20.80
53776;DHT22;44276;49.534;6.378;2023-06-19T12:36:53;29.50;21.10
53776;DHT22;44276;49.534;6.378;2023-06-19T12:39:24;29.40;21.00
53776;DHT22;44276;49.534;6.378;2023-06-19T12:41:53;29.20;21.30
53776;DHT22;44276;49.534;6.378;2023-06-19T12:44:22;29.20;20.70
53776;DHT22;44276;49.534;6.378;2023-06-19T12:46:51;29.30;20.60
53776;DHT22;44276;49.534;6.378;2023-06-19T12:49:20;29.40;19.50
53776;DHT22;44276;49.534;6.378;2023-06-19T12:51:49;29.40;19.50
53776;DHT22;44276;49.534;6.378;2023-06-19T12:54:19;29.80;19.50
53776;DHT22;44276;49.534;6.378;2023-06-19T12:56:47;30.20;18.60
53776;DHT22;44276;49.534;6.378;2023-06-19T12:59:15;30.40;18.00
53776;DHT22;44276;49.534;6.378;2023-06-19T13:01:44;31.00;17.40
53776;DHT22;44276;49.534;6.378;2023-06-19T13:04:13;31.20;17.40
53776;DHT22;44276;49.534;6.378;2023-06-19T13:06:43;31.10;18.20
53776;DHT22;44276;49.534;6.378;2023-06-19T13:09:11;30.70;18.00
53776;DHT22;44276;49.534;6.378;2023-06-19T13:11:40;30.60;18.40
53776;DHT22;44276;49.534;6.378;2023-06-19T13:14:08;30.60;18.40
53776;DHT22;44276;49.534;6.378;2023-06-19T13:16:36;30.80;18.40
53776;DHT22;44276;49.534;6.378;2023-06-19T13:19:07;30.60;18.30
53776;DHT22;44276;49.534;6.378;2023-06-19T13:21:35;30.60;19.00
53776;DHT22;44276;49.534;6.378;2023-06-19T13:24:05;30.70;18.90
53776;DHT22;44276;49.534;6.378;2023-06-19T13:26:33;30.40;19.10
53776;DHT22;44276;49.534;6.378;2023-06-19T13:29:01;30.50;19.20
53776;DHT22;44276;49.534;6.378;2023-06-19T13:31:29;30.30;19.00
53776;DHT22;44276;49.534;6.378;2023-06-19T13:33:57;30.20;19.80
53776;DHT22;44276;49.534;6.378;2023-06-19T13:36:26;30.50;20.20
53776;DHT22;44276;49.534;6.378;2023-06-19T13:38:54;30.70;20.60
53776;DHT22;44276;49.534;6.378;2023-06-19T13:41:24;30.40;21.10
53776;DHT22;44276;49.534;6.378;2023-06-19T13:43:53;30.20;21.60
53776;DHT22;44276;49.534;6.378;2023-06-19T13:46:22;30.60;21.20
53776;DHT22;44276;49.534;6.378;2023-06-19T13:48:50;31.00;20.20
53776;DHT22;44276;49.534;6.378;2023-06-19T13:51:19;31.00;20.30
53776;DHT22;44276;49.534;6.378;2023-06-19T13:53:48;30.90;19.80
53776;DHT22;44276;49.534;6.378;2023-06-19T13:56:18;31.10;19.80
53776;DHT22;44276;49.534;6.378;2023-06-19T13:58:48;32.10;18.40
53776;DHT22;44276;49.534;6.378;2023-06-19T14:01:16;32.90;17.50
53776;DHT22;44276;49.534;6.378;2023-06-19T14:03:44;34.10;15.10
53776;DHT22;44276;49.534;6.378;2023-06-19T14:06:12;33.60;16.10
53776;DHT22;44276;49.534;6.378;2023-06-19T14:08:40;32.90;16.30
53776;DHT22;44276;49.534;6.378;2023-06-19T14:11:09;32.70;16.40
53776;DHT22;44276;49.534;6.378;2023-06-19T14:13:38;32.70;16.80
53776;DHT22;44276;49.534;6.378;2023-06-19T14:16:07;32.90;15.80
53776;DHT22;44276;49.534;6.378;2023-06-19T14:18:35;33.30;15.30
53776;DHT22;44276;49.534;6.378;2023-06-19T14:21:04;33.90;14.90
53776;DHT22;44276;49.534;6.378;2023-06-19T14:23:32;34.60;13.60
53776;DHT22;44276;49.534;6.378;2023-06-19T14:26:05;35.00;13.40
53776;DHT22;44276;49.534;6.378;2023-06-19T14:28:34;34.50;13.30
53776;DHT22;44276;49.534;6.378;2023-06-19T14:31:02;34.60;13.90
53776;DHT22;44276;49.534;6.378;2023-06-19T14:33:31;34.30;13.00
53776;DHT22;44276;49.534;6.378;2023-06-19T14:36:00;33.80;14.00
53776;DHT22;44276;49.534;6.378;2023-06-19T14:38:29;33.70;13.80
53776;DHT22;44276;49.534;6.378;2023-06-19T14:41:01;33.50;14.30
53776;DHT22;44276;49.534;6.378;2023-06-19T14:43:30;32.80;15.00
53776;DHT22;44276;49.534;6.378;2023-06-19T14:46:00;32.20;15.30
53776;DHT22;44276;49.534;6.378;2023-06-19T14:48:31;32.00;15.40
53776;DHT22;44276;49.534;6.378;2023-06-19T14:51:00;32.40;15.30
53776;DHT22;44276;49.534;6.378;2023-06-19T14:53:31;33.00;14.70
53776;DHT22;44276;49.534;6.378;2023-06-19T14:55:59;33.40;13.80
53776;DHT22;44276;49.534;6.378;2023-06-19T14:58:27;33.80;12.90
53776;DHT22;44276;49.534;6.378;2023-06-19T15:00:56;33.20;14.00
53776;DHT22;44276;49.534;6.378;2023-06-19T15:03:24;33.20;14.70
53776;DHT22;44276;49.534;6.378;2023-06-19T15:05:54;33.50;15.30
53776;DHT22;44276;49.534;6.378;2023-06-19T15:08:22;33.50;14.00
53776;DHT22;44276;49.534;6.378;2023-06-19T15:10:51;33.20;14.40
53776;DHT22;44276;49.534;6.378;2023-06-19T15:13:19;33.10;14.40
53776;DHT22;44276;49.534;6.378;2023-06-19T15:15:47;33.30;14.70
53776;DHT22;44276;49.534;6.378;2023-06-19T15:18:17;33.20;14.80
53776;DHT22;44276;49.534;6.378;2023-06-19T15:20:46;32.90;15.20
53776;DHT22;44276;49.534;6.378;2023-06-19T15:23:15;32.30;15.80
53776;DHT22;44276;49.534;6.378;2023-06-19T15:25:43;31.50;16.90
53776;DHT22;44276;49.534;6.378;2023-06-19T15:28:12;31.30;17.50
53776;DHT22;44276;49.534;6.378;2023-06-19T15:30:40;31.30;17.50
53776;DHT22;44276;49.534;6.378;2023-06-19T15:33:08;31.90;17.30
53776;DHT22;44276;49.534;6.378;2023-06-19T15:35:37;32.30;17.40
53776;DHT22;44276;49.534;6.378;2023-06-19T15:38:05;33.00;15.70
53776;DHT22;44276;49.534;6.378;2023-06-19T15:40:34;33.20;15.30
53776;DHT22;44276;49.534;6.378;2023-06-19T15:43:04;33.70;15.30
53776;DHT22;44276;49.534;6.378;2023-06-19T15:45:32;33.70;14.70